sensor_id;sensor_type;location;lat;lon;timestamp;pressure;altitude;pressure_sealevel;temperature;humidity
71621;BME280;59471;42.254;23.102;2023-02-24T00:02:03;95889.38;;;7.77;77.68
71621;BME280;59471;42.254;23.102;2023-02-24T00:04:37;95887.88;;;7.75;78.13
71621;BME280;59471;42.254;23.102;2023-02-24T00:07:04;95886.91;;;7.68;78.10
71621;BME280;59471;42.254;23.102;2023-02-24T00:09:31;95883.31;;;7.69;78.33
71621;BME280;59471;42.254;23.102;2023-02-24T00:11:58;95876.16;;;7.71;78.07
71621;BME280;59471;42.254;23.102;2023-02-24T00:14:30;95879.44;;;7.73;77.88
71621;BME280;59471;42.254;23.102;2023-02-24T00:16:58;95885.00;;;7.86;77.29
71621;BME280;59471;42.254;23.102;2023-02-24T00:19:25;95878.47;;;7.82;77.36
71621;BME280;59471;42.254;23.102;2023-02-24T00:21:52;95874.53;;;7.70;77.99
71621;BME280;59471;42.254;23.102;2023-02-24T00:24:21;95880.81;;;7.51;78.84
71621;BME280;59471;42.254;23.102;2023-02-24T00:26:58;95869.25;;;7.53;78.59
71621;BME280;59471;42.254;23.102;2023-02-24T00:29:26;95863.97;;;7.37;78.90
71621;BME280;59471;42.254;23.102;2023-02-24T00:31:53;95869.56;;;7.50;78.49
71621;BME280;59471;42.254;23.102;2023-02-24T00:34:28;95872.38;;;7.65;77.89
71621;BME280;59471;42.254;23.102;2023-02-24T00:36:55;95875.13;;;7.55;77.80
71621;BME280;59471;42.254;23.102;2023-02-24T00:39:21;95877.41;;;7.58;78.11
71621;BME280;59471;42.254;23.102;2023-02-24T00:41:52;95879.75;;;7.70;77.93
71621;BME280;59471;42.254;23.102;2023-02-24T00:44:22;95867.91;;;7.92;77.29
71621;BME280;59471;42.254;23.102;2023-02-24T00:46:48;95873.25;;;7.82;77.57
71621;BME280;59471;42.254;23.102;2023-02-24T00:49:16;95861.84;;;7.83;77.19
71621;BME280;59471;42.254;23.102;2023-02-24T00:51:46;95842.63;;;7.76;76.78
71621;BME280;59471;42.254;23.102;2023-02-24T00:54:13;95849.13;;;7.80;77.24
71621;BME280;59471;42.254;23.102;2023-02-24T00:56:45;95854.19;;;7.89;76.33
71621;BME280;59471;42.254;23.102;2023-02-24T00:59:14;95851.03;;;7.61;77.64
71621;BME280;59471;42.254;23.102;2023-02-24T01:01:42;95851.53;;;7.65;78.02
71621;BME280;59471;42.254;23.102;2023-02-24T01:04:12;95852.84;;;7.69;76.88
71621;BME280;59471;42.254;23.102;2023-02-24T01:06:40;95840.78;;;7.60;77.95
71621;BME280;59471;42.254;23.102;2023-02-24T01:09:11;95842.38;;;7.53;78.06
71621;BME280;59471;42.254;23.102;2023-02-24T01:11:39;95842.88;;;7.56;77.52
71621;BME280;59471;42.254;23.102;2023-02-24T01:14:27;95843.38;;;7.60;76.78
71621;BME280;59471;42.254;23.102;2023-02-24T01:16:54;95839.94;;;7.51;77.45
71621;BME280;59471;42.254;23.102;2023-02-24T01:19:22;95835.97;;;7.39;78.04
71621;BME280;59471;42.254;23.102;2023-02-24T01:21:56;95838.94;;;7.44;77.73
71621;BME280;59471;42.254;23.102;2023-02-24T01:24:26;95834.22;;;7.48;77.21
71621;BME280;59471;42.254;23.102;2023-02-24T01:26:53;95828.25;;;7.63;76.97
71621;BME280;59471;42.254;23.102;2023-02-24T01:29:19;95827.22;;;7.56;77.37
71621;BME280;59471;42.254;23.102;2023-02-24T01:31:49;95821.53;;;7.53;76.94
71621;BME280;59471;42.254;23.102;2023-02-24T01:34:16;95837.97;;;7.53;77.42
71621;BME280;59471;42.254;23.102;2023-02-24T01:36:42;95830.81;;;7.55;76.84
71621;BME280;59471;42.254;23.102;2023-02-24T01:39:09;95830.09;;;7.29;77.78
71621;BME280;59471;42.254;23.102;2023-02-24T01:41:40;95828.13;;;7.31;77.77
71621;BME280;59471;42.254;23.102;2023-02-24T01:46:46;95832.06;;;7.35;77.68
71621;BME280;59471;42.254;23.102;2023-02-24T01:49:32;95817.69;;;7.23;77.46
71621;BME280;59471;42.254;23.102;2023-02-24T01:52:22;95827.75;;;7.09;77.54
71621;BME280;59471;42.254;23.102;2023-02-24T01:57:37;95819.81;;;6.93;79.00
71621;BME280;59471;42.254;23.102;2023-02-24T02:00:05;95823.78;;;7.05;78.65
71621;BME280;59471;42.254;23.102;2023-02-24T02:02:38;95824.09;;;7.02;78.27
71621;BME280;59471;42.254;23.102;2023-02-24T02:05:07;95824.41;;;6.99;78.89
71621;BME280;59471;42.254;23.102;2023-02-24T02:07:35;95834.53;;;7.02;78.98
71621;BME280;59471;42.254;23.102;2023-02-24T02:10:04;95829.50;;;7.09;78.24
71621;BME280;59471;42.254;23.102;2023-02-24T02:12:33;95839.19;;;7.25;77.56
71621;BME280;59471;42.254;23.102;2023-02-24T02:15:10;95844.25;;;7.26;77.37
71621;BME280;59471;42.254;23.102;2023-02-24T02:17:55;95838.41;;;7.32;76.61
71621;BME280;59471;42.254;23.102;2023-02-24T02:42:58;95840.84;;;7.34;77.79
71621;BME280;59471;42.254;23.102;2023-02-24T02:45:41;95833.69;;;7.36;77.76
71621;BME280;59471;42.254;23.102;2023-02-24T02:48:30;95840.09;;;7.07;77.93
71621;BME280;59471;42.254;23.102;2023-02-24T02:54:11;95838.47;;;7.14;77.63
71621;BME280;59471;42.254;23.102;2023-02-24T02:56:55;95827.75;;;7.09;77.46
71621;BME280;59471;42.254;23.102;2023-02-24T02:59:28;95834.28;;;7.22;77.13
71621;BME280;59471;42.254;23.102;2023-02-24T03:01:57;95832.69;;;7.29;76.97
71621;BME280;59471;42.254;23.102;2023-02-24T03:04:38;95828.53;;;7.44;76.41
71621;BME280;59471;42.254;23.102;2023-02-24T03:07:08;95835.63;;;7.34;76.81
71621;BME280;59471;42.254;23.102;2023-02-24T03:09:39;95817.28;;;7.01;77.99
71621;BME280;59471;42.254;23.102;2023-02-24T03:12:10;95816.97;;;7.04;77.58
71621;BME280;59471;42.254;23.102;2023-02-24T03:14:42;95808.78;;;6.99;77.69
71621;BME280;59471;42.254;23.102;2023-02-24T03:17:21;95819.59;;;7.12;78.00
71621;BME280;59471;42.254;23.102;2023-02-24T03:20:14;95822.28;;;6.94;79.23
71621;BME280;59471;42.254;23.102;2023-02-24T03:22:57;95814.16;;;6.97;79.22
71621;BME280;59471;42.254;23.102;2023-02-24T03:25:35;95815.34;;;7.03;79.09
71621;BME280;59471;42.254;23.102;2023-02-24T03:28:19;95823.47;;;7.08;78.75
71621;BME280;59471;42.254;23.102;2023-02-24T03:31:03;95810.94;;;7.04;78.78
71621;BME280;59471;42.254;23.102;2023-02-24T03:33:38;95818.59;;;7.05;78.88
71621;BME280;59471;42.254;23.102;2023-02-24T03:36:09;95816.72;;;7.24;77.66
71621;BME280;59471;42.254;23.102;2023-02-24T03:38:39;95822.91;;;7.23;77.27
71621;BME280;59471;42.254;23.102;2023-02-24T03:41:08;95811.00;;;7.20;78.11
71621;BME280;59471;42.254;23.102;2023-02-24T03:43:45;95807.03;;;7.08;77.97
71621;BME280;59471;42.254;23.102;2023-02-24T03:46:15;95804.63;;;6.80;78.84
71621;BME280;59471;42.254;23.102;2023-02-24T03:48:48;95807.50;;;6.69;78.81
71621;BME280;59471;42.254;23.102;2023-02-24T03:51:20;95800.22;;;6.81;78.86
71621;BME280;59471;42.254;23.102;2023-02-24T03:54:16;95808.78;;;6.99;78.03
71621;BME280;59471;42.254;23.102;2023-02-24T03:57:25;95805.53;;;6.97;78.31
71621;BME280;59471;42.254;23.102;2023-02-24T04:00:10;95797.28;;;6.76;79.08
71621;BME280;59471;42.254;23.102;2023-02-24T04:09:15;95814.19;;;6.71;79.45
71621;BME280;59471;42.254;23.102;2023-02-24T04:14:49;95807.72;;;6.49;80.30
71621;BME280;59471;42.254;23.102;2023-02-24T04:20:24;95818.88;;;6.94;78.50
71621;BME280;59471;42.254;23.102;2023-02-24T04:23:14;95813.63;;;6.86;78.94
71621;BME280;59471;42.254;23.102;2023-02-24T04:25:45;95808.09;;;6.89;77.95
71621;BME280;59471;42.254;23.102;2023-02-24T04:28:12;95808.72;;;6.83;78.23
71621;BME280;59471;42.254;23.102;2023-02-24T04:30:43;95810.88;;;6.87;77.99
71621;BME280;59471;42.254;23.102;2023-02-24T04:33:12;95811.59;;;6.71;78.45
71621;BME280;59471;42.254;23.102;2023-02-24T04:35:38;95815.16;;;6.70;79.25
71621;BME280;59471;42.254;23.102;2023-02-24T04:38:05;95811.53;;;6.63;79.78
71621;BME280;59471;42.254;23.102;2023-02-24T04:40:31;95818.38;;;6.64;79.87
71621;BME280;59471;42.254;23.102;2023-02-24T04:42:56;95804.03;;;6.60;79.72
71621;BME280;59471;42.254;23.102;2023-02-24T04:45:28;95809.69;;;6.82;79.44
71621;BME280;59471;42.254;23.102;2023-02-24T04:47:57;95807.19;;;6.46;80.56
71621;BME280;59471;42.254;23.102;2023-02-24T04:50:35;95804.84;;;6.35;80.78
71621;BME280;59471;42.254;23.102;2023-02-24T04:53:15;95809.94;;;6.44;80.71
71621;BME280;59471;42.254;23.102;2023-02-24T04:55:43;95808.13;;;6.63;79.68
71621;BME280;59471;42.254;23.102;2023-02-24T04:58:16;95808.13;;;6.63;79.66
71621;BME280;59471;42.254;23.102;2023-02-24T05:00:43;95810.94;;;6.69;79.46
71621;BME280;59471;42.254;23.102;2023-02-24T05:03:12;95810.06;;;6.61;79.66
71621;BME280;59471;42.254;23.102;2023-02-24T05:05:39;95809.16;;;6.44;80.52
71621;BME280;59471;42.254;23.102;2023-02-24T05:08:09;95795.88;;;6.55;80.60
71621;BME280;59471;42.254;23.102;2023-02-24T05:10:37;95801.06;;;6.55;80.10
71621;BME280;59471;42.254;23.102;2023-02-24T05:13:06;95799.03;;;6.67;79.81
71621;BME280;59471;42.254;23.102;2023-02-24T05:15:36;95798.97;;;6.85;79.05
71621;BME280;59471;42.254;23.102;2023-02-24T05:18:06;95796.56;;;6.91;79.16
71621;BME280;59471;42.254;23.102;2023-02-24T05:20:41;95789.50;;;6.84;78.94
71621;BME280;59471;42.254;23.102;2023-02-24T05:23:36;95797.75;;;6.45;80.42
71621;BME280;59471;42.254;23.102;2023-02-24T05:26:05;95805.56;;;6.45;79.77
71621;BME280;59471;42.254;23.102;2023-02-24T05:28:34;95805.16;;;6.32;80.95
71621;BME280;59471;42.254;23.102;2023-02-24T05:31:12;95793.56;;;6.26;80.86
71621;BME280;59471;42.254;23.102;2023-02-24T05:33:41;95796.88;;;6.36;80.42
71621;BME280;59471;42.254;23.102;2023-02-24T05:36:14;95805.66;;;6.35;81.09
71621;BME280;59471;42.254;23.102;2023-02-24T05:38:44;95812.63;;;6.53;80.71
71621;BME280;59471;42.254;23.102;2023-02-24T05:41:17;95823.53;;;6.82;79.93
71621;BME280;59471;42.254;23.102;2023-02-24T05:43:44;95813.63;;;6.86;79.62
71621;BME280;59471;42.254;23.102;2023-02-24T05:46:15;95813.53;;;6.69;79.79
71621;BME280;59471;42.254;23.102;2023-02-24T05:48:41;95816.38;;;6.58;80.98
71621;BME280;59471;42.254;23.102;2023-02-24T05:51:08;95819.34;;;6.63;80.75
71621;BME280;59471;42.254;23.102;2023-02-24T05:53:37;95828.13;;;6.62;80.59
71621;BME280;59471;42.254;23.102;2023-02-24T05:56:09;95832.50;;;6.62;81.51
71621;BME280;59471;42.254;23.102;2023-02-24T05:58:36;95832.09;;;6.48;82.02
71621;BME280;59471;42.254;23.102;2023-02-24T06:01:09;95837.78;;;6.52;82.17
71621;BME280;59471;42.254;23.102;2023-02-24T06:03:43;95846.59;;;6.51;82.37
71621;BME280;59471;42.254;23.102;2023-02-24T06:06:15;95840.97;;;6.64;82.73
71621;BME280;59471;42.254;23.102;2023-02-24T06:08:42;95850.88;;;6.60;83.23
71621;BME280;59471;42.254;23.102;2023-02-24T06:11:16;95852.00;;;6.40;83.34
71621;BME280;59471;42.254;23.102;2023-02-24T06:13:44;95853.28;;;6.36;84.58
71621;BME280;59471;42.254;23.102;2023-02-24T06:16:15;95850.47;;;6.47;84.36
71621;BME280;59471;42.254;23.102;2023-02-24T06:18:42;95849.97;;;6.43;84.36
71621;BME280;59471;42.254;23.102;2023-02-24T06:21:09;95852.66;;;6.34;84.87
71621;BME280;59471;42.254;23.102;2023-02-24T06:23:40;95858.63;;;6.52;84.12
71621;BME280;59471;42.254;23.102;2023-02-24T06:26:06;95849.13;;;6.43;84.99
71621;BME280;59471;42.254;23.102;2023-02-24T06:28:39;95853.72;;;6.49;84.62
71621;BME280;59471;42.254;23.102;2023-02-24T06:31:08;95848.56;;;6.57;84.07
71621;BME280;59471;42.254;23.102;2023-02-24T06:33:36;95848.72;;;6.56;83.41
71621;BME280;59471;42.254;23.102;2023-02-24T06:36:03;95861.22;;;6.52;83.23
71621;BME280;59471;42.254;23.102;2023-02-24T06:38:30;95849.38;;;6.32;83.45
71621;BME280;59471;42.254;23.102;2023-02-24T06:40:57;95849.19;;;6.33;83.81
71621;BME280;59471;42.254;23.102;2023-02-24T06:43:23;95862.72;;;6.37;83.74
71621;BME280;59471;42.254;23.102;2023-02-24T06:45:49;95857.09;;;6.41;84.47
71621;BME280;59471;42.254;23.102;2023-02-24T06:48:14;95858.16;;;6.57;83.74
71621;BME280;59471;42.254;23.102;2023-02-24T06:50:40;95859.00;;;6.57;83.34
71621;BME280;59471;42.254;23.102;2023-02-24T06:53:06;95850.00;;;6.52;84.31
71621;BME280;59471;42.254;23.102;2023-02-24T06:55:42;95851.47;;;6.54;83.98
71621;BME280;59471;42.254;23.102;2023-02-24T06:58:15;95852.38;;;6.45;84.81
71621;BME280;59471;42.254;23.102;2023-02-24T07:00:42;95863.41;;;6.65;83.93
71621;BME280;59471;42.254;23.102;2023-02-24T07:03:15;95855.78;;;6.63;83.72
71621;BME280;59471;42.254;23.102;2023-02-24T07:05:49;95859.34;;;6.62;83.67
71621;BME280;59471;42.254;23.102;2023-02-24T07:08:23;95854.56;;;6.76;84.23
71621;BME280;59471;42.254;23.102;2023-02-24T07:10:56;95851.69;;;6.61;84.26
71621;BME280;59471;42.254;23.102;2023-02-24T07:13:26;95844.78;;;6.78;84.15
71621;BME280;59471;42.254;23.102;2023-02-24T07:15:54;95845.84;;;6.93;83.10
71621;BME280;59471;42.254;23.102;2023-02-24T07:18:20;95849.75;;;6.89;82.71
71621;BME280;59471;42.254;23.102;2023-02-24T07:20:47;95847.50;;;6.94;82.83
71621;BME280;59471;42.254;23.102;2023-02-24T07:23:15;95834.81;;;6.99;82.86
71621;BME280;59471;42.254;23.102;2023-02-24T07:25:44;95834.91;;;7.15;82.75
71621;BME280;59471;42.254;23.102;2023-02-24T07:28:11;95830.34;;;7.09;82.58
71621;BME280;59471;42.254;23.102;2023-02-24T07:30:39;95836.16;;;7.03;82.03
71621;BME280;59471;42.254;23.102;2023-02-24T07:33:06;95828.25;;;6.87;83.44
71621;BME280;59471;42.254;23.102;2023-02-24T07:35:32;95832.47;;;7.14;81.97
71621;BME280;59471;42.254;23.102;2023-02-24T07:38:00;95826.31;;;7.23;82.54
71621;BME280;59471;42.254;23.102;2023-02-24T07:40:30;95831.72;;;7.30;81.25
71621;BME280;59471;42.254;23.102;2023-02-24T07:43:00;95832.41;;;7.40;81.91
71621;BME280;59471;42.254;23.102;2023-02-24T07:45:26;95827.75;;;7.60;81.30
71621;BME280;59471;42.254;23.102;2023-02-24T07:47:54;95830.47;;;7.50;81.34
71621;BME280;59471;42.254;23.102;2023-02-24T07:50:20;95827.59;;;7.61;80.26
71621;BME280;59471;42.254;23.102;2023-02-24T07:52:46;95818.41;;;7.41;79.39
71621;BME280;59471;42.254;23.102;2023-02-24T07:55:13;95818.69;;;7.30;80.43
71621;BME280;59471;42.254;23.102;2023-02-24T07:57:42;95815.41;;;7.28;80.63
71621;BME280;59471;42.254;23.102;2023-02-24T08:00:12;95808.63;;;7.35;80.56
71621;BME280;59471;42.254;23.102;2023-02-24T08:02:54;95809.31;;;7.53;79.82
71621;BME280;59471;42.254;23.102;2023-02-24T08:05:21;95810.97;;;7.62;79.60
71621;BME280;59471;42.254;23.102;2023-02-24T08:07:49;95806.44;;;7.73;79.28
71621;BME280;59471;42.254;23.102;2023-02-24T08:10:23;95798.63;;;7.81;79.02
71621;BME280;59471;42.254;23.102;2023-02-24T08:12:51;95800.91;;;7.84;79.20
71621;BME280;59471;42.254;23.102;2023-02-24T08:15:25;95798.94;;;7.78;79.02
71621;BME280;59471;42.254;23.102;2023-02-24T08:17:59;95802.50;;;7.60;79.37
71621;BME280;59471;42.254;23.102;2023-02-24T08:20:27;95798.44;;;7.66;80.18
71621;BME280;59471;42.254;23.102;2023-02-24T08:23:28;95798.94;;;7.78;79.79
71621;BME280;59471;42.254;23.102;2023-02-24T08:26:01;95797.00;;;7.80;79.84
71621;BME280;59471;42.254;23.102;2023-02-24T08:28:27;95801.59;;;8.10;78.80
71621;BME280;59471;42.254;23.102;2023-02-24T08:30:53;95787.91;;;8.17;78.56
71621;BME280;59471;42.254;23.102;2023-02-24T08:33:20;95794.75;;;8.01;79.51
71621;BME280;59471;42.254;23.102;2023-02-24T08:35:53;95792.78;;;8.11;79.33
71621;BME280;59471;42.254;23.102;2023-02-24T08:38:27;95788.34;;;8.28;78.74
71621;BME280;59471;42.254;23.102;2023-02-24T08:41:05;95791.47;;;8.16;78.78
71621;BME280;59471;42.254;23.102;2023-02-24T08:43:39;95784.47;;;8.32;78.38
71621;BME280;59471;42.254;23.102;2023-02-24T08:48:42;95786.44;;;8.39;78.59
71621;BME280;59471;42.254;23.102;2023-02-24T08:51:18;95783.63;;;8.56;78.18
71621;BME280;59471;42.254;23.102;2023-02-24T08:53:49;95784.25;;;8.67;77.95
71621;BME280;59471;42.254;23.102;2023-02-24T08:56:25;95785.56;;;8.63;78.04
71621;BME280;59471;42.254;23.102;2023-02-24T08:59:00;95770.19;;;8.76;77.68
71621;BME280;59471;42.254;23.102;2023-02-24T09:01:35;95782.72;;;8.89;79.72
71621;BME280;59471;42.254;23.102;2023-02-24T09:04:11;95782.84;;;9.03;78.64
71621;BME280;59471;42.254;23.102;2023-02-24T09:06:49;95790.63;;;9.20;77.36
71621;BME280;59471;42.254;23.102;2023-02-24T09:09:17;95771.91;;;9.39;79.11
71621;BME280;59471;42.254;23.102;2023-02-24T09:11:51;95783.09;;;9.56;80.63
71621;BME280;59471;42.254;23.102;2023-02-24T09:14:26;95783.19;;;9.71;81.03
71621;BME280;59471;42.254;23.102;2023-02-24T09:16:57;95793.53;;;9.87;83.25
71621;BME280;59471;42.254;23.102;2023-02-24T09:19:28;95784.00;;;9.94;82.30
71621;BME280;59471;42.254;23.102;2023-02-24T09:22:08;95782.84;;;9.97;83.30
71621;BME280;59471;42.254;23.102;2023-02-24T09:24:40;95788.19;;;10.04;82.97
71621;BME280;59471;42.254;23.102;2023-02-24T09:27:06;95771.78;;;10.10;83.31
71621;BME280;59471;42.254;23.102;2023-02-24T09:29:32;95775.59;;;10.22;81.36
71621;BME280;59471;42.254;23.102;2023-02-24T09:32:03;95779.38;;;10.28;81.82
71621;BME280;59471;42.254;23.102;2023-02-24T09:37:01;95767.94;;;10.43;81.05
71621;BME280;59471;42.254;23.102;2023-02-24T09:39:36;95760.69;;;10.46;81.15
71621;BME280;59471;42.254;23.102;2023-02-24T09:42:22;95762.34;;;10.47;81.35
71621;BME280;59471;42.254;23.102;2023-02-24T09:45:04;95757.72;;;10.49;80.34
71621;BME280;59471;42.254;23.102;2023-02-24T09:47:45;95752.16;;;10.66;80.09
71621;BME280;59471;42.254;23.102;2023-02-24T09:52:51;95758.28;;;10.74;78.94
71621;BME280;59471;42.254;23.102;2023-02-24T09:55:35;95740.16;;;10.72;79.19
71621;BME280;59471;42.254;23.102;2023-02-24T10:10:07;95742.38;;;10.90;78.80
71621;BME280;59471;42.254;23.102;2023-02-24T10:12:52;95737.94;;;11.05;77.60
71621;BME280;59471;42.254;23.102;2023-02-24T10:15:29;95732.78;;;11.12;75.46
71621;BME280;59471;42.254;23.102;2023-02-24T10:18:36;95730.94;;;11.27;72.70
71621;BME280;59471;42.254;23.102;2023-02-24T10:21:19;95729.13;;;11.43;72.00
71621;BME280;59471;42.254;23.102;2023-02-24T10:27:40;95720.00;;;11.39;71.66
71621;BME280;59471;42.254;23.102;2023-02-24T10:30:30;95716.38;;;11.40;71.25
71621;BME280;59471;42.254;23.102;2023-02-24T10:33:19;95706.00;;;11.53;71.51
71621;BME280;59471;42.254;23.102;2023-02-24T10:35:50;95697.28;;;11.67;70.70
71621;BME280;59471;42.254;23.102;2023-02-24T10:38:19;95696.53;;;11.73;70.48
71621;BME280;59471;42.254;23.102;2023-02-24T10:40:51;95698.41;;;11.58;70.20
71621;BME280;59471;42.254;23.102;2023-02-24T10:43:23;95682.16;;;11.69;69.92
71621;BME280;59471;42.254;23.102;2023-02-24T10:45:58;95687.03;;;11.94;70.30
71621;BME280;59471;42.254;23.102;2023-02-24T10:48:48;95678.91;;;12.10;69.08
71621;BME280;59471;42.254;23.102;2023-02-24T10:51:29;95666.53;;;12.04;68.33
71621;BME280;59471;42.254;23.102;2023-02-24T10:56:55;95668.88;;;12.48;67.86
71621;BME280;59471;42.254;23.102;2023-02-24T10:59:45;95661.97;;;12.89;66.71
71621;BME280;59471;42.254;23.102;2023-02-24T11:02:48;95659.38;;;12.95;66.27
71621;BME280;59471;42.254;23.102;2023-02-24T11:05:41;95653.47;;;13.35;65.58
71621;BME280;59471;42.254;23.102;2023-02-24T11:08:26;95650.34;;;13.11;64.86
71621;BME280;59471;42.254;23.102;2023-02-24T11:13:48;95657.94;;;13.34;64.86
71621;BME280;59471;42.254;23.102;2023-02-24T11:19:40;95627.81;;;13.63;63.39
71621;BME280;59471;42.254;23.102;2023-02-24T11:22:13;95638.13;;;13.65;64.31
71621;BME280;59471;42.254;23.102;2023-02-24T11:24:43;95639.38;;;13.76;62.53
71621;BME280;59471;42.254;23.102;2023-02-24T11:27:10;95643.81;;;13.68;61.63
71621;BME280;59471;42.254;23.102;2023-02-24T11:30:14;95626.38;;;13.54;62.46
71621;BME280;59471;42.254;23.102;2023-02-24T11:38:49;95618.09;;;13.44;61.94
71621;BME280;59471;42.254;23.102;2023-02-24T11:41:46;95612.66;;;13.65;62.22
71621;BME280;59471;42.254;23.102;2023-02-24T11:47:10;95601.25;;;14.18;59.88
71621;BME280;59471;42.254;23.102;2023-02-24T11:49:45;95591.75;;;14.10;58.84
71621;BME280;59471;42.254;23.102;2023-02-24T11:52:36;95588.09;;;14.05;58.84
71621;BME280;59471;42.254;23.102;2023-02-24T11:55:13;95586.31;;;13.92;60.68
71621;BME280;59471;42.254;23.102;2023-02-24T11:57:53;95579.84;;;13.61;61.20
71621;BME280;59471;42.254;23.102;2023-02-24T12:00:23;95580.63;;;13.55;61.83
71621;BME280;59471;42.254;23.102;2023-02-24T12:02:53;95577.59;;;13.58;61.06
71621;BME280;59471;42.254;23.102;2023-02-24T12:05:26;95568.28;;;13.82;60.43
71621;BME280;59471;42.254;23.102;2023-02-24T12:10:38;95552.13;;;14.64;59.28
71621;BME280;59471;42.254;23.102;2023-02-24T12:13:18;95544.38;;;14.75;57.23
71621;BME280;59471;42.254;23.102;2023-02-24T12:16:30;95539.22;;;15.19;57.75
71621;BME280;59471;42.254;23.102;2023-02-24T12:21:56;95531.53;;;15.17;54.70
71621;BME280;59471;42.254;23.102;2023-02-24T12:24:27;95538.63;;;14.85;56.46
71621;BME280;59471;42.254;23.102;2023-02-24T12:27:17;95536.13;;;14.45;55.96
71621;BME280;59471;42.254;23.102;2023-02-24T12:35:47;95520.69;;;13.97;59.07
71621;BME280;59471;42.254;23.102;2023-02-24T12:47:26;95509.22;;;13.45;58.83
71621;BME280;59471;42.254;23.102;2023-02-24T12:55:49;95482.25;;;13.83;58.83
71621;BME280;59471;42.254;23.102;2023-02-24T12:58:24;95478.47;;;14.24;56.85
71621;BME280;59471;42.254;23.102;2023-02-24T13:10:17;95477.19;;;15.10;54.02
71621;BME280;59471;42.254;23.102;2023-02-24T13:13:09;95464.69;;;15.30;53.46
71621;BME280;59471;42.254;23.102;2023-02-24T13:15:52;95464.72;;;14.98;53.40
71621;BME280;59471;42.254;23.102;2023-02-24T13:18:30;95463.28;;;15.27;53.79
71621;BME280;59471;42.254;23.102;2023-02-24T13:21:20;95460.69;;;14.96;53.07
71621;BME280;59471;42.254;23.102;2023-02-24T13:24:00;95459.66;;;14.65;53.99
71621;BME280;59471;42.254;23.102;2023-02-24T13:26:29;95473.88;;;14.57;54.39
71621;BME280;59471;42.254;23.102;2023-02-24T13:29:08;95477.16;;;14.53;54.40
71621;BME280;59471;42.254;23.102;2023-02-24T13:31:50;95470.81;;;14.09;55.57
71621;BME280;59471;42.254;23.102;2023-02-24T13:36:55;95466.44;;;13.89;56.45
71621;BME280;59471;42.254;23.102;2023-02-24T13:39:35;95472.50;;;13.83;57.12
71621;BME280;59471;42.254;23.102;2023-02-24T13:50:21;95495.47;;;13.43;58.59
71621;BME280;59471;42.254;23.102;2023-02-24T14:01:30;95479.06;;;13.54;57.66
71621;BME280;59471;42.254;23.102;2023-02-24T14:06:52;95481.28;;;14.29;57.37
71621;BME280;59471;42.254;23.102;2023-02-24T14:09:27;95481.16;;;14.62;56.29
71621;BME280;59471;42.254;23.102;2023-02-24T14:11:59;95469.81;;;14.93;55.51
71621;BME280;59471;42.254;23.102;2023-02-24T14:14:28;95466.31;;;14.99;54.77
71621;BME280;59471;42.254;23.102;2023-02-24T14:16:54;95467.94;;;14.69;56.46
71621;BME280;59471;42.254;23.102;2023-02-24T14:19:19;95468.25;;;14.47;56.57
71621;BME280;59471;42.254;23.102;2023-02-24T14:21:53;95469.13;;;14.28;57.49
71621;BME280;59471;42.254;23.102;2023-02-24T14:24:20;95463.59;;;13.91;56.62
71621;BME280;59471;42.254;23.102;2023-02-24T14:27:04;95461.16;;;13.89;57.92
71621;BME280;59471;42.254;23.102;2023-02-24T14:29:34;95460.78;;;13.86;57.69
71621;BME280;59471;42.254;23.102;2023-02-24T14:32:00;95452.28;;;13.90;58.11
71621;BME280;59471;42.254;23.102;2023-02-24T14:34:29;95452.69;;;13.81;58.28
71621;BME280;59471;42.254;23.102;2023-02-24T14:36:57;95455.31;;;13.74;58.51
71621;BME280;59471;42.254;23.102;2023-02-24T14:39:26;95447.03;;;13.77;58.65
71621;BME280;59471;42.254;23.102;2023-02-24T14:44:33;95451.53;;;13.50;60.46
71621;BME280;59471;42.254;23.102;2023-02-24T14:47:02;95445.66;;;13.48;60.38
71621;BME280;59471;42.254;23.102;2023-02-24T14:49:33;95446.69;;;13.47;60.23
71621;BME280;59471;42.254;23.102;2023-02-24T14:52:24;95443.03;;;13.48;60.88
71621;BME280;59471;42.254;23.102;2023-02-24T14:54:56;95451.16;;;13.40;61.12
71621;BME280;59471;42.254;23.102;2023-02-24T14:57:30;95447.91;;;13.38;61.51
71621;BME280;59471;42.254;23.102;2023-02-24T15:00:03;95442.03;;;13.42;61.69
71621;BME280;59471;42.254;23.102;2023-02-24T15:02:36;95442.66;;;13.44;61.38
71621;BME280;59471;42.254;23.102;2023-02-24T15:05:06;95442.28;;;13.28;61.55
71621;BME280;59471;42.254;23.102;2023-02-24T15:07:33;95439.00;;;13.12;62.34
71621;BME280;59471;42.254;23.102;2023-02-24T15:10:00;95439.41;;;13.03;62.80
71621;BME280;59471;42.254;23.102;2023-02-24T15:12:44;95439.59;;;12.94;63.24
71621;BME280;59471;42.254;23.102;2023-02-24T15:15:20;95435.78;;;12.97;63.49
71621;BME280;59471;42.254;23.102;2023-02-24T15:17:54;95435.78;;;12.97;63.53
71621;BME280;59471;42.254;23.102;2023-02-24T15:20:27;95437.59;;;12.83;64.08
71621;BME280;59471;42.254;23.102;2023-02-24T15:22:54;95434.53;;;12.66;64.46
71621;BME280;59471;42.254;23.102;2023-02-24T15:25:49;95428.28;;;12.67;64.58
71621;BME280;59471;42.254;23.102;2023-02-24T15:28:26;95437.75;;;12.55;65.46
71621;BME280;59471;42.254;23.102;2023-02-24T15:31:14;95437.34;;;12.58;65.29
71621;BME280;59471;42.254;23.102;2023-02-24T15:33:44;95438.56;;;12.62;65.53
71621;BME280;59471;42.254;23.102;2023-02-24T15:36:17;95441.81;;;12.64;66.07
71621;BME280;59471;42.254;23.102;2023-02-24T15:38:45;95437.09;;;12.40;66.80
71621;BME280;59471;42.254;23.102;2023-02-24T15:41:12;95435.69;;;12.37;67.39
71621;BME280;59471;42.254;23.102;2023-02-24T15:43:47;95439.09;;;12.24;67.71
71621;BME280;59471;42.254;23.102;2023-02-24T15:48:45;95436.88;;;12.28;68.04
71621;BME280;59471;42.254;23.102;2023-02-24T15:51:35;95435.66;;;12.24;67.76
71621;BME280;59471;42.254;23.102;2023-02-24T15:54:17;95434.41;;;12.20;67.45
71621;BME280;59471;42.254;23.102;2023-02-24T15:56:45;95435.78;;;12.09;68.41
71621;BME280;59471;42.254;23.102;2023-02-24T15:59:16;95437.34;;;11.97;69.06